createdAt,value
2018-05-08T00:00:34.385Z,12.80
2018-05-08T00:03:01.940Z,12.80
2018-05-08T00:05:29.466Z,12.70
2018-05-08T00:07:57.015Z,12.70
2018-05-08T00:10:24.531Z,12.70
2018-05-08T00:12:52.072Z,12.60
2018-05-08T00:15:19.564Z,12.60
2018-05-08T00:17:47.115Z,12.50
2018-05-08T00:20:14.635Z,12.50
2018-05-08T00:22:42.207Z,12.50
2018-05-08T00:25:09.752Z,12.40
2018-05-08T00:27:37.288Z,12.40
2018-05-08T00:30:05.768Z,12.50
2018-05-08T00:32:33.300Z,12.40
2018-05-08T00:35:00.861Z,12.40
2018-05-08T00:37:28.370Z,12.40
2018-05-08T00:39:55.902Z,12.40
2018-05-08T00:42:23.408Z,12.40
2018-05-08T00:44:50.949Z,12.40
2018-05-08T00:47:18.521Z,12.40
2018-05-08T00:49:46.065Z,12.40
2018-05-08T00:52:13.604Z,12.40
2018-05-08T00:54:53.016Z,12.30
2018-05-08T00:57:21.357Z,12.40
2018-05-08T00:59:48.873Z,12.30
2018-05-08T01:02:16.374Z,12.40
2018-05-08T01:04:43.957Z,12.40
2018-05-08T01:07:11.454Z,12.40
2018-05-08T01:09:39.008Z,12.40
2018-05-08T01:12:06.524Z,12.40
2018-05-08T01:14:34.040Z,12.40
2018-05-08T01:17:01.667Z,12.30
2018-05-08T01:19:29.124Z,12.30
2018-05-08T01:21:56.666Z,12.30
2018-05-08T01:24:24.174Z,12.20
2018-05-08T01:26:51.706Z,12.20
2018-05-08T01:29:19.230Z,12.10
2018-05-08T01:31:46.791Z,12.10
2018-05-08T01:34:14.330Z,12.10
2018-05-08T01:36:41.879Z,12.00
2018-05-08T01:39:09.395Z,12.00
2018-05-08T01:41:36.944Z,11.90
2018-05-08T01:44:04.461Z,11.90
2018-05-08T01:46:32.047Z,11.80
2018-05-08T01:48:59.578Z,11.80
2018-05-08T01:51:27.110Z,11.70
2018-05-08T01:53:54.632Z,11.70
2018-05-08T01:56:22.204Z,11.70
2018-05-08T01:58:49.892Z,11.60
2018-05-08T02:01:17.394Z,11.60
2018-05-08T02:03:44.938Z,11.60
2018-05-08T02:06:12.462Z,11.60
2018-05-08T02:08:40.768Z,11.50
2018-05-08T02:11:08.282Z,11.40
2018-05-08T02:13:35.844Z,11.50
2018-05-08T02:16:03.368Z,11.40
2018-05-08T02:18:30.908Z,11.40
2018-05-08T02:20:58.418Z,11.30
2018-05-08T02:23:25.957Z,11.40
2018-05-08T02:25:53.495Z,11.30
2018-05-08T02:28:21.037Z,11.30
2018-05-08T02:30:48.549Z,11.20
2018-05-08T02:33:16.100Z,11.20
2018-05-08T02:35:43.608Z,11.10
2018-05-08T02:38:11.150Z,11.10
2018-05-08T02:40:39.453Z,11.10
2018-05-08T02:43:07.020Z,11.00
2018-05-08T02:45:34.524Z,11.00
2018-05-08T02:48:02.028Z,11.00
2018-05-08T02:50:29.572Z,11.00
2018-05-08T02:52:57.088Z,11.00
2018-05-08T02:55:24.620Z,11.00
2018-05-08T02:57:52.166Z,10.90
2018-05-08T03:00:19.739Z,10.90
2018-05-08T03:02:47.267Z,10.90
2018-05-08T03:05:15.349Z,10.80
2018-05-08T03:07:42.863Z,10.80
2018-05-08T03:10:10.427Z,10.80
2018-05-08T03:12:37.959Z,10.70
2018-05-08T03:15:06.304Z,10.70
2018-05-08T03:17:33.829Z,10.70
2018-05-08T03:20:01.395Z,10.70
2018-05-08T03:22:29.671Z,10.70
2018-05-08T03:24:58.051Z,10.60
2018-05-08T03:27:26.422Z,10.60
2018-05-08T03:29:53.995Z,10.60
2018-05-08T03:32:22.351Z,10.60
2018-05-08T03:34:49.948Z,10.60
2018-05-08T03:37:17.534Z,10.60
2018-05-08T03:39:45.109Z,10.60
2018-05-08T03:42:12.660Z,10.60
2018-05-08T03:44:40.208Z,10.60
2018-05-08T03:47:07.795Z,10.50
2018-05-08T03:49:35.337Z,10.50
2018-05-08T03:52:02.943Z,10.50
2018-05-08T03:54:30.480Z,10.50
2018-05-08T03:56:58.036Z,10.50
2018-05-08T03:59:25.602Z,10.50
2018-05-08T04:02:04.956Z,10.50
2018-05-08T04:04:44.344Z,10.50
2018-05-08T04:07:23.793Z,10.50
2018-05-08T04:09:51.476Z,10.50
2018-05-08T04:12:19.072Z,10.50
2018-05-08T04:14:47.427Z,10.50
2018-05-08T04:17:15.824Z,10.50
2018-05-08T04:19:44.132Z,10.50
2018-05-08T04:22:12.532Z,10.50
2018-05-08T04:24:40.062Z,10.60
2018-05-08T04:27:07.640Z,10.60
2018-05-08T04:29:35.255Z,10.60
2018-05-08T04:32:02.860Z,10.60
2018-05-08T04:34:30.453Z,10.70
2018-05-08T04:36:58.046Z,10.70
2018-05-08T04:39:25.620Z,10.70
2018-05-08T04:41:53.187Z,10.80
2018-05-08T04:44:20.827Z,10.80
2018-05-08T04:46:48.427Z,10.90
2018-05-08T04:49:19.370Z,10.90
2018-05-08T04:51:47.069Z,11.00
2018-05-08T04:54:14.807Z,11.10
2018-05-08T04:56:42.382Z,11.10
2018-05-08T04:59:10.824Z,11.20
2018-05-08T05:01:38.339Z,11.20
2018-05-08T05:04:05.964Z,11.30
2018-05-08T05:06:33.499Z,11.30
2018-05-08T05:09:01.147Z,11.40
2018-05-08T05:11:29.772Z,11.50
2018-05-08T05:13:57.309Z,11.50
2018-05-08T05:16:24.872Z,11.60
2018-05-08T05:18:52.451Z,11.60
2018-05-08T05:21:20.049Z,11.70
2018-05-08T05:23:47.700Z,11.80
2018-05-08T05:26:15.268Z,11.80
2018-05-08T05:28:42.798Z,11.90
2018-05-08T05:31:10.650Z,11.90
2018-05-08T05:33:38.279Z,12.00
2018-05-08T05:36:05.897Z,12.10
2018-05-08T05:38:33.500Z,12.20
2018-05-08T05:41:01.160Z,12.30
2018-05-08T05:43:28.770Z,12.30
2018-05-08T05:45:56.460Z,12.40
2018-05-08T05:48:24.140Z,12.50
2018-05-08T05:50:52.547Z,12.60
2018-05-08T05:53:20.179Z,12.60
2018-05-08T05:55:47.889Z,12.70
2018-05-08T05:58:15.520Z,12.80
2018-05-08T06:00:43.368Z,13.00
2018-05-08T06:03:11.768Z,13.20
2018-05-08T06:05:39.355Z,13.10
2018-05-08T06:08:07.052Z,13.30
2018-05-08T06:10:34.596Z,13.40
2018-05-08T06:13:02.258Z,13.50
2018-05-08T06:15:29.912Z,13.60
2018-05-08T06:17:58.367Z,13.70
2018-05-08T06:20:25.981Z,13.80
2018-05-08T06:22:53.641Z,13.90
2018-05-08T06:25:21.200Z,14.00
2018-05-08T06:27:48.878Z,14.10
2018-05-08T06:30:16.494Z,14.20
2018-05-08T06:32:44.930Z,14.50
2018-05-08T06:35:13.351Z,14.60
2018-05-08T06:37:40.946Z,14.60
2018-05-08T06:40:11.573Z,14.80
2018-05-08T06:42:40.101Z,15.10
2018-05-08T06:45:07.681Z,15.00
2018-05-08T06:47:35.324Z,15.20
2018-05-08T06:50:03.000Z,15.40
2018-05-08T06:52:30.589Z,15.50
2018-05-08T06:54:58.346Z,15.60
2018-05-08T06:57:25.852Z,15.80
2018-05-08T06:59:53.415Z,16.00
2018-05-08T07:02:21.058Z,16.10
2018-05-08T07:04:48.647Z,16.30
2018-05-08T07:07:16.228Z,16.50
2018-05-08T07:09:43.865Z,16.50
2018-05-08T07:12:11.479Z,16.70
2018-05-08T07:14:39.112Z,16.80
2018-05-08T07:17:06.674Z,17.00
2018-05-08T07:19:34.241Z,17.10
2018-05-08T07:22:01.788Z,17.20
2018-05-08T07:24:29.395Z,17.20
2018-05-08T07:26:56.955Z,17.30
2018-05-08T07:29:24.536Z,17.30
2018-05-08T07:31:52.062Z,17.40
2018-05-08T07:34:19.704Z,17.50
2018-05-08T07:36:47.311Z,17.60
2018-05-08T07:39:14.974Z,17.80
2018-05-08T07:41:42.648Z,17.80
2018-05-08T07:44:11.063Z,18.10
2018-05-08T07:46:38.676Z,18.10
2018-05-08T07:49:07.011Z,18.50
2018-05-08T07:51:34.712Z,18.50
2018-05-08T07:54:02.301Z,18.60
2018-05-08T07:56:29.942Z,18.80
2018-05-08T07:58:58.340Z,19.20
2018-05-08T08:01:25.945Z,19.20
2018-05-08T08:03:53.532Z,19.40
2018-05-08T08:06:21.199Z,19.60
2018-05-08T08:08:48.763Z,19.70
2018-05-08T08:11:16.469Z,19.80
2018-05-08T08:13:45.506Z,20.00
2018-05-08T08:16:13.908Z,20.10
2018-05-08T08:18:42.314Z,20.30
2018-05-08T08:21:09.977Z,20.20
2018-05-08T08:23:37.607Z,20.40
2018-05-08T08:26:05.300Z,20.50
2018-05-08T08:28:32.925Z,20.60
2018-05-08T08:31:00.524Z,20.70
2018-05-08T08:33:28.210Z,20.80
2018-05-08T08:35:55.814Z,20.70
2018-05-08T08:38:23.608Z,20.80
2018-05-08T08:40:51.313Z,20.70
2018-05-08T08:43:19.001Z,20.70
2018-05-08T08:45:47.340Z,20.80
2018-05-08T08:48:14.895Z,20.80
2018-05-08T08:50:42.560Z,20.80
2018-05-08T08:53:10.195Z,20.80
2018-05-08T08:55:37.903Z,20.80
2018-05-08T08:58:05.585Z,21.00
2018-05-08T09:00:33.279Z,21.10
2018-05-08T09:03:00.922Z,21.00
2018-05-08T09:05:28.472Z,20.80
2018-05-08T09:07:56.109Z,20.70
2018-05-08T09:10:23.698Z,20.80
2018-05-08T09:12:51.436Z,21.00
2018-05-08T09:15:19.079Z,21.00
2018-05-08T09:17:46.613Z,20.70
2018-05-08T09:20:14.315Z,20.50
2018-05-08T09:22:41.845Z,20.30
2018-05-08T09:25:09.499Z,20.20
2018-05-08T09:27:37.145Z,20.20
2018-05-08T09:30:04.659Z,20.00
2018-05-08T09:32:32.210Z,19.90
2018-05-08T09:34:59.784Z,19.90
2018-05-08T09:37:27.325Z,19.90
2018-05-08T09:39:55.048Z,19.90
2018-05-08T09:42:22.562Z,20.10
2018-05-08T09:44:50.119Z,20.20
2018-05-08T09:47:18.599Z,20.50
2018-05-08T09:49:46.199Z,20.50
2018-05-08T09:52:13.877Z,20.80
2018-05-08T09:54:41.523Z,20.80
2018-05-08T09:57:09.876Z,21.10
2018-05-08T09:59:38.889Z,21.00
2018-05-08T10:02:06.691Z,21.20
2018-05-08T10:04:34.381Z,21.50
2018-05-08T10:07:02.092Z,21.60
2018-05-08T10:09:29.591Z,21.60
2018-05-08T10:11:57.238Z,21.40
2018-05-08T10:14:24.851Z,21.50
2018-05-08T10:16:52.451Z,21.70
2018-05-08T10:19:20.027Z,21.90
2018-05-08T10:21:47.627Z,21.90
2018-05-08T10:24:15.182Z,22.20
2018-05-08T10:26:42.928Z,22.30
2018-05-08T10:29:11.235Z,22.80
2018-05-08T10:31:38.913Z,22.70
2018-05-08T10:34:06.578Z,23.10
2018-05-08T10:36:34.190Z,23.00
2018-05-08T10:39:01.734Z,22.80
2018-05-08T10:41:29.423Z,22.70
2018-05-08T10:43:57.845Z,22.80
2018-05-08T10:46:26.245Z,22.90
2018-05-08T10:48:53.875Z,22.90
2018-05-08T10:51:22.253Z,23.20
2018-05-08T10:53:49.876Z,23.20
2018-05-08T10:56:19.243Z,23.30
2018-05-08T10:58:46.841Z,23.30
2018-05-08T11:01:14.666Z,23.30
2018-05-08T11:03:42.301Z,23.30
2018-05-08T11:06:09.911Z,23.40
2018-05-08T11:08:37.541Z,23.60
2018-05-08T11:11:05.224Z,23.80
2018-05-08T11:13:32.827Z,24.10
2018-05-08T11:16:00.477Z,24.30
2018-05-08T11:18:28.067Z,24.60
2018-05-08T11:20:56.407Z,24.90
2018-05-08T11:23:23.965Z,24.80
2018-05-08T11:25:51.588Z,24.80
2018-05-08T11:31:01.447Z,24.30
2018-05-08T11:33:29.069Z,24.60
2018-05-08T11:35:57.428Z,24.70
2018-05-08T11:38:25.033Z,24.70
2018-05-08T11:40:52.756Z,24.80
2018-05-08T11:43:20.375Z,24.70
2018-05-08T11:45:47.981Z,24.80
2018-05-08T11:48:15.534Z,24.90
2018-05-08T11:50:43.133Z,25.10
2018-05-08T11:53:10.703Z,25.50
2018-05-08T11:55:39.089Z,25.90
2018-05-08T11:58:06.645Z,25.80
2018-05-08T12:00:34.258Z,25.80
2018-05-08T12:03:01.859Z,26.10
2018-05-08T12:05:29.453Z,26.30
2018-05-08T12:07:57.059Z,26.40
2018-05-08T12:10:24.679Z,26.10
2018-05-08T12:12:52.329Z,26.40
2018-05-08T12:15:19.957Z,26.40
2018-05-08T12:17:47.641Z,26.70
2018-05-08T12:20:15.448Z,27.00
2018-05-08T12:22:43.127Z,26.70
2018-05-08T12:25:10.817Z,26.70
2018-05-08T12:27:38.505Z,26.60
2018-05-08T12:30:06.193Z,26.10
2018-05-08T12:32:33.815Z,25.90
2018-05-08T12:35:01.535Z,25.50
2018-05-08T12:37:29.988Z,25.20
2018-05-08T12:39:57.623Z,25.20
2018-05-08T12:42:25.176Z,25.50
2018-05-08T12:44:56.925Z,25.90
2018-05-08T12:47:24.662Z,25.90
2018-05-08T12:49:52.337Z,25.80
2018-05-08T12:52:19.954Z,25.20
2018-05-08T12:54:47.685Z,24.90
2018-05-08T12:57:15.300Z,25.00
2018-05-08T12:59:42.983Z,24.90
2018-05-08T13:02:10.576Z,25.00
2018-05-08T13:04:38.249Z,25.20
2018-05-08T13:07:05.869Z,25.20
2018-05-08T13:09:33.532Z,25.40
2018-05-08T13:12:01.072Z,25.80
2018-05-08T13:14:28.748Z,26.10
2018-05-08T13:16:56.448Z,26.20
2018-05-08T13:19:24.142Z,26.10
2018-05-08T13:21:51.829Z,26.20
2018-05-08T13:24:19.541Z,26.40
2018-05-08T13:26:47.908Z,26.60
2018-05-08T13:29:15.517Z,26.60
2018-05-08T13:31:43.157Z,26.70
2018-05-08T13:34:10.773Z,26.70
2018-05-08T13:36:38.485Z,26.40
2018-05-08T13:39:06.037Z,26.10
2018-05-08T13:41:38.587Z,26.00
2018-05-08T13:44:06.181Z,25.70
2018-05-08T13:46:33.873Z,25.70
2018-05-08T13:49:01.547Z,25.70
2018-05-08T13:51:29.212Z,25.50
2018-05-08T13:53:56.894Z,25.50
2018-05-08T13:56:24.465Z,25.40
2018-05-08T13:58:52.884Z,25.30
2018-05-08T14:01:20.460Z,25.30
2018-05-08T14:03:48.242Z,25.50
2018-05-08T14:06:15.921Z,25.50
2018-05-08T14:08:44.322Z,25.70
2018-05-08T14:11:11.903Z,25.60
2018-05-08T14:13:39.616Z,25.80
2018-05-08T14:16:07.175Z,26.10
2018-05-08T14:18:34.793Z,26.10
2018-05-08T14:21:02.344Z,25.90
2018-05-08T14:23:30.049Z,26.00
2018-05-08T14:25:57.716Z,25.90
2018-05-08T14:28:25.292Z,25.60
2018-05-08T14:30:52.947Z,25.50
2018-05-08T14:33:20.595Z,25.50
2018-05-08T14:35:48.202Z,25.40
2018-05-08T14:38:15.761Z,25.20
2018-05-08T14:40:43.384Z,25.20
2018-05-08T14:43:11.023Z,25.10
2018-05-08T14:45:38.599Z,25.20
2018-05-08T14:48:06.237Z,24.90
2018-05-08T14:56:20.489Z,24.50
2018-05-08T14:58:48.059Z,24.60
2018-05-08T15:01:15.616Z,24.50
2018-05-08T15:03:43.319Z,24.40
2018-05-08T15:06:10.925Z,24.30
2018-05-08T15:08:38.527Z,24.30
2018-05-08T15:11:06.133Z,24.10
2018-05-08T15:13:33.724Z,24.00
2018-05-08T15:16:01.303Z,23.90
2018-05-08T15:18:28.907Z,23.90
2018-05-08T15:20:56.531Z,24.00
2018-05-08T15:23:24.187Z,24.10
2018-05-08T15:25:51.757Z,24.10
2018-05-08T15:28:19.286Z,24.10
2018-05-08T15:30:46.791Z,23.80
2018-05-08T15:33:14.326Z,23.60
2018-05-08T15:35:41.826Z,23.40
2018-05-08T15:38:09.383Z,23.00
2018-05-08T15:40:36.892Z,22.90
2018-05-08T15:43:04.488Z,22.50
2018-05-08T15:45:31.980Z,22.40
2018-05-08T15:48:00.264Z,22.00
2018-05-08T15:50:28.589Z,21.70
2018-05-08T15:52:56.096Z,21.60
2018-05-08T15:55:24.404Z,20.50
2018-05-08T15:57:51.918Z,20.40
2018-05-08T16:00:19.450Z,19.80
2018-05-08T16:02:46.973Z,19.30
2018-05-08T16:05:14.509Z,19.00
2018-05-08T16:07:42.788Z,18.60
2018-05-08T16:10:11.088Z,18.50
2018-05-08T16:12:38.595Z,18.50
2018-05-08T16:15:06.154Z,18.50
2018-05-08T16:17:33.656Z,18.50
2018-05-08T16:20:01.202Z,18.50
2018-05-08T16:55:36.346Z,17.80
2018-05-08T16:58:04.053Z,17.60
2018-05-08T17:00:31.811Z,17.50
2018-05-08T17:03:00.356Z,17.40
2018-05-08T17:05:28.139Z,17.40
2018-05-08T17:07:55.895Z,17.40
2018-05-08T17:10:23.584Z,17.20
2018-05-08T17:12:51.454Z,17.10
2018-05-08T17:15:19.236Z,16.90
2018-05-08T17:17:48.316Z,16.90
2018-05-08T17:20:15.923Z,16.80
2018-05-08T17:22:43.551Z,16.90
2018-05-08T17:25:11.243Z,16.80
2018-05-08T17:27:38.905Z,16.70
2018-05-08T17:30:06.527Z,16.70
2018-05-08T17:32:34.222Z,16.60
2018-05-08T17:35:01.821Z,16.50
2018-05-08T17:37:29.827Z,16.40
2018-05-08T17:39:58.341Z,16.30
2018-05-08T17:42:26.021Z,16.30
2018-05-08T17:44:53.623Z,16.20
2018-05-08T17:47:21.981Z,16.10
2018-05-08T17:49:49.613Z,16.00
2018-05-08T17:52:17.149Z,16.00
2018-05-08T17:54:44.803Z,15.90
2018-05-08T17:57:12.449Z,15.90
2018-05-08T17:59:40.877Z,15.90
2018-05-08T18:02:08.461Z,15.80
2018-05-08T18:04:36.105Z,15.80
2018-05-08T18:07:03.747Z,15.80
2018-05-08T18:09:31.341Z,15.70
2018-05-08T18:11:58.910Z,15.60
2018-05-08T18:14:26.530Z,15.60
2018-05-08T18:16:54.129Z,15.50
2018-05-08T18:19:21.729Z,15.40
2018-05-08T18:21:50.053Z,15.30
2018-05-08T18:24:17.666Z,15.30
2018-05-08T18:26:45.704Z,15.30
2018-05-08T18:29:13.311Z,15.20
2018-05-08T18:31:41.028Z,15.20
2018-05-08T18:34:08.718Z,15.10
2018-05-08T18:36:36.383Z,15.10
2018-05-08T18:39:05.636Z,15.00
2018-05-08T18:41:33.320Z,15.00
2018-05-08T18:44:00.933Z,15.00
2018-05-08T18:46:28.535Z,15.00
2018-05-08T18:48:56.214Z,14.90
2018-05-08T18:51:23.800Z,14.80
2018-05-08T18:53:51.369Z,14.80
2018-05-08T18:56:19.040Z,14.80
2018-05-08T18:58:46.680Z,14.70
2018-05-08T19:01:14.277Z,14.70
2018-05-08T19:03:41.859Z,14.60
2018-05-08T19:06:09.578Z,14.60
2018-05-08T19:08:37.171Z,14.50
2018-05-08T19:11:10.366Z,14.50
2018-05-08T19:13:37.960Z,14.50
2018-05-08T19:16:05.650Z,14.50
2018-05-08T19:18:38.841Z,14.40
2018-05-08T19:21:06.430Z,14.40
2018-05-08T19:23:34.742Z,14.30
2018-05-08T19:26:02.408Z,14.30
2018-05-08T19:28:35.461Z,14.30
2018-05-08T19:31:03.106Z,14.30
2018-05-08T19:33:30.771Z,14.30
2018-05-08T19:36:04.052Z,14.30
2018-05-08T19:38:31.621Z,14.30
2018-05-08T19:40:59.243Z,14.30
2018-05-08T19:43:26.868Z,14.30
2018-05-08T19:45:54.517Z,14.30
2018-05-08T19:48:22.058Z,14.20
2018-05-08T19:50:49.800Z,14.20
2018-05-08T19:53:18.126Z,14.20
2018-05-08T19:55:45.693Z,14.10
2018-05-08T19:58:13.276Z,14.20
2018-05-08T20:00:41.579Z,14.20
2018-05-08T20:03:09.222Z,14.10
2018-05-08T20:05:36.822Z,14.10
2018-05-08T20:08:04.436Z,14.00
2018-05-08T20:10:32.085Z,14.10
2018-05-08T20:13:00.469Z,14.10
2018-05-08T20:15:28.070Z,14.00
2018-05-08T20:17:55.715Z,14.10
2018-05-08T20:20:24.150Z,14.00
2018-05-08T20:22:51.798Z,14.00
2018-05-08T20:25:19.413Z,14.00
2018-05-08T20:27:47.037Z,14.00
2018-05-08T20:30:14.615Z,14.00
2018-05-08T20:32:42.248Z,14.00
2018-05-08T20:35:09.973Z,13.90
2018-05-08T20:37:38.385Z,13.80
2018-05-08T20:40:05.984Z,13.80
2018-05-08T20:42:33.637Z,13.80
2018-05-08T20:45:01.271Z,13.80
2018-05-08T20:47:29.694Z,13.70
2018-05-08T20:49:57.323Z,13.60
2018-05-08T20:52:24.880Z,13.60
2018-05-08T20:54:52.500Z,13.60
2018-05-08T20:57:20.964Z,13.60
2018-05-08T20:59:48.639Z,13.50
2018-05-08T21:02:16.227Z,13.50
2018-05-08T21:04:43.928Z,13.50
2018-05-08T21:07:11.524Z,13.40
2018-05-08T21:09:39.200Z,13.40
2018-05-08T21:12:06.821Z,13.40
2018-05-08T21:14:34.480Z,13.40
2018-05-08T21:17:02.730Z,13.30
2018-05-08T21:19:30.382Z,13.30
2018-05-08T21:21:58.098Z,13.30
2018-05-08T21:24:25.763Z,13.20
2018-05-08T21:26:53.423Z,13.20
2018-05-08T21:29:26.730Z,13.20
2018-05-08T21:31:55.041Z,13.20
2018-05-08T21:34:22.676Z,13.10
2018-05-08T21:36:51.010Z,13.10
2018-05-08T21:39:18.704Z,13.10
2018-05-08T21:41:46.322Z,13.10
2018-05-08T21:44:13.916Z,13.10
2018-05-08T21:46:41.503Z,13.10
2018-05-08T21:49:09.055Z,13.10
2018-05-08T21:51:37.504Z,13.00
2018-05-08T21:54:05.150Z,13.00
2018-05-08T21:56:32.749Z,13.00
2018-05-08T21:59:00.332Z,13.00
2018-05-08T22:01:27.940Z,13.00
2018-05-08T22:03:57.471Z,12.90
2018-05-08T22:06:25.819Z,12.90
2018-05-08T22:08:53.364Z,12.80
2018-05-08T22:11:20.991Z,12.90
2018-05-08T22:13:48.547Z,12.80
2018-05-08T22:16:16.187Z,12.80
2018-05-08T22:18:43.795Z,12.80
2018-05-08T22:21:11.343Z,12.80
2018-05-08T22:23:39.064Z,12.80
2018-05-08T22:26:06.869Z,12.80
2018-05-08T22:28:34.670Z,12.70
2018-05-08T22:31:02.399Z,12.70
2018-05-08T22:33:30.167Z,12.70
2018-05-08T22:35:57.828Z,12.70
2018-05-08T22:38:25.508Z,12.70
2018-05-08T22:40:53.191Z,12.70
2018-05-08T22:43:20.767Z,12.60
2018-05-08T22:45:48.501Z,12.60
2018-05-08T22:48:16.141Z,12.60
2018-05-08T22:50:43.706Z,12.60
2018-05-08T22:53:11.321Z,12.60
2018-05-08T22:55:38.924Z,12.50
2018-05-08T22:58:06.516Z,12.50
2018-05-08T23:00:34.546Z,12.50
2018-05-08T23:03:02.123Z,12.50
2018-05-08T23:05:29.795Z,12.40
2018-05-08T23:07:57.373Z,12.40
2018-05-08T23:10:25.009Z,12.40
2018-05-08T23:12:52.563Z,12.40
2018-05-08T23:15:20.299Z,12.40
2018-05-08T23:17:47.997Z,12.40
2018-05-08T23:20:15.695Z,12.30
2018-05-08T23:22:43.249Z,12.20
2018-05-08T23:25:10.885Z,12.20
2018-05-08T23:27:38.413Z,12.20
2018-05-08T23:30:06.130Z,12.20
2018-05-08T23:32:33.657Z,12.10
2018-05-08T23:35:01.349Z,12.10
2018-05-08T23:37:28.926Z,12.10
2018-05-08T23:39:56.616Z,12.00
2018-05-08T23:42:24.231Z,12.00
2018-05-08T23:44:51.831Z,12.10
2018-05-08T23:47:19.863Z,12.10
2018-05-08T23:49:47.513Z,12.10
2018-05-08T23:52:15.687Z,12.10
2018-05-08T23:54:43.301Z,12.10
2018-05-08T23:57:11.678Z,12.10
2018-05-08T23:59:39.279Z,12.00
